createdAt,value
2023-01-19T00:01:02.583Z,-1.72
2023-01-19T00:03:32.145Z,-2.56
2023-01-19T00:06:07.603Z,-1.94
2023-01-19T00:08:37.372Z,-1.09
2023-01-19T00:11:06.905Z,-0.96
2023-01-19T00:13:36.876Z,-1.00
2023-01-19T00:16:06.498Z,-0.93
2023-01-19T00:18:36.639Z,-0.22
2023-01-19T00:21:09.082Z,-0.78
2023-01-19T00:23:38.704Z,-0.86
2023-01-19T00:26:08.724Z,-0.74
2023-01-19T00:28:38.416Z,-0.59
2023-01-19T00:31:08.654Z,-0.11
2023-01-19T00:33:38.285Z,0.41
2023-01-19T00:36:11.735Z,0.58
2023-01-19T00:38:41.662Z,0.48
2023-01-19T00:41:11.410Z,0.81
2023-01-19T00:43:38.414Z,0.70
2023-01-19T00:46:08.352Z,0.85
2023-01-19T00:48:37.939Z,-0.01
2023-01-19T00:51:10.315Z,-0.24
2023-01-19T00:53:39.816Z,-0.28
2023-01-19T00:56:10.413Z,0.26
2023-01-19T00:58:40.210Z,0.19
2023-01-19T01:01:09.841Z,-0.14
2023-01-19T01:03:39.671Z,0.30
2023-01-19T01:06:11.853Z,-0.19
2023-01-19T01:08:41.454Z,0.75
2023-01-19T01:11:11.015Z,0.54
2023-01-19T01:13:40.597Z,-0.14
2023-01-19T01:16:10.676Z,-0.05
2023-01-19T01:18:40.476Z,0.34
2023-01-19T01:21:13.383Z,0.48
2023-01-19T01:23:42.896Z,-1.01
2023-01-19T01:26:12.429Z,-1.13
2023-01-19T01:28:41.951Z,-2.35
2023-01-19T01:31:11.551Z,-1.83
2023-01-19T01:33:41.877Z,-0.78
2023-01-19T01:36:15.069Z,-0.73
2023-01-19T01:38:45.046Z,-0.14
2023-01-19T01:41:15.278Z,0.25
2023-01-19T01:43:47.516Z,-0.39
2023-01-19T01:46:18.084Z,-1.07
2023-01-19T01:48:52.296Z,-0.62
2023-01-19T01:51:28.603Z,-0.43
2023-01-19T01:54:13.876Z,0.04
2023-01-19T01:56:46.045Z,-0.13
2023-01-19T01:59:26.181Z,-1.58
2023-01-19T02:02:11.090Z,-1.42
2023-01-19T02:04:46.120Z,-0.29
2023-01-19T02:07:37.704Z,0.16
2023-01-19T02:10:20.592Z,0.17
2023-01-19T02:13:03.617Z,0.11
2023-01-19T02:15:33.231Z,0.46
2023-01-19T02:18:02.747Z,0.21
2023-01-19T02:20:34.461Z,0.55
2023-01-19T02:23:10.408Z,0.46
2023-01-19T02:25:42.770Z,0.60
2023-01-19T02:28:12.861Z,0.18
2023-01-19T02:30:44.175Z,0.35
2023-01-19T02:33:13.831Z,-0.16
2023-01-19T02:35:44.093Z,0.31
2023-01-19T02:38:14.650Z,0.91
2023-01-19T02:40:47.764Z,0.40
2023-01-19T02:43:20.407Z,0.02
2023-01-19T02:45:50.463Z,0.39
2023-01-19T02:48:23.258Z,0.23
2023-01-19T02:50:56.125Z,0.64
2023-01-19T02:53:40.176Z,0.30
2023-01-19T02:56:32.586Z,-0.03
2023-01-19T02:59:07.395Z,-0.12
2023-01-19T03:01:49.464Z,0.01
2023-01-19T03:04:29.642Z,-0.21
2023-01-19T03:07:09.419Z,-0.58
2023-01-19T03:09:49.175Z,-0.63
2023-01-19T03:12:30.074Z,-0.70
2023-01-19T03:15:04.990Z,-0.43
2023-01-19T03:17:36.261Z,-0.48
2023-01-19T03:20:08.120Z,-0.06
2023-01-19T03:22:37.857Z,-0.63
2023-01-19T03:25:09.466Z,-0.42
2023-01-19T03:27:42.674Z,-0.74
2023-01-19T03:30:18.676Z,-0.70
2023-01-19T03:32:52.504Z,-0.52
2023-01-19T03:35:27.672Z,-0.18
2023-01-19T03:37:58.874Z,-0.20
2023-01-19T03:40:30.506Z,-0.13
2023-01-19T03:43:04.219Z,-0.48
2023-01-19T03:45:35.987Z,-0.10
2023-01-19T03:48:06.509Z,-0.31
2023-01-19T03:50:36.166Z,0.49
2023-01-19T03:53:10.479Z,0.01
2023-01-19T03:55:42.716Z,0.43
2023-01-19T03:58:15.153Z,0.95
2023-01-19T04:00:44.724Z,0.73
2023-01-19T04:03:16.876Z,-1.15
2023-01-19T04:05:47.145Z,-0.48
2023-01-19T04:08:16.741Z,-0.37
2023-01-19T04:10:46.287Z,0.13
2023-01-19T04:13:18.369Z,0.70
2023-01-19T04:15:47.900Z,0.13
2023-01-19T04:18:17.608Z,0.31
2023-01-19T04:20:47.170Z,0.28
2023-01-19T04:23:17.115Z,0.09
2023-01-19T04:25:46.652Z,0.42
2023-01-19T04:28:18.842Z,0.81
2023-01-19T04:30:52.237Z,0.52
2023-01-19T04:33:22.433Z,0.76
2023-01-19T04:35:54.608Z,0.56
2023-01-19T04:38:24.767Z,0.60
2023-01-19T04:40:55.729Z,-0.01
2023-01-19T04:43:27.853Z,0.45
2023-01-19T04:45:57.483Z,0.46
2023-01-19T04:48:27.130Z,0.34
2023-01-19T04:50:56.644Z,0.48
2023-01-19T04:53:26.140Z,0.33
2023-01-19T04:55:57.234Z,0.38
2023-01-19T04:58:29.486Z,0.38
2023-01-19T05:00:59.151Z,0.53
2023-01-19T05:03:28.785Z,0.31
2023-01-19T05:05:58.308Z,0.10
2023-01-19T05:08:27.930Z,0.09
2023-01-19T05:10:57.619Z,0.17
2023-01-19T05:13:29.702Z,-0.11
2023-01-19T05:15:59.280Z,0.03
2023-01-19T05:18:29.928Z,0.08
2023-01-19T05:20:59.445Z,0.18
2023-01-19T05:23:31.101Z,0.24
2023-01-19T05:26:00.877Z,0.10
2023-01-19T05:28:35.071Z,0.10
2023-01-19T05:31:04.673Z,0.09
2023-01-19T05:33:34.830Z,0.09
2023-01-19T05:36:04.428Z,0.15
2023-01-19T05:38:35.605Z,0.24
2023-01-19T05:41:05.645Z,0.17
2023-01-19T05:43:37.784Z,0.26
2023-01-19T05:46:07.594Z,0.33
2023-01-19T05:48:37.191Z,0.25
2023-01-19T05:51:07.830Z,0.24
2023-01-19T05:53:37.377Z,0.02
2023-01-19T05:56:11.195Z,0.17
2023-01-19T05:58:43.528Z,0.18
2023-01-19T06:01:13.695Z,0.13
2023-01-19T06:03:43.258Z,0.08
2023-01-19T06:06:15.044Z,0.24
2023-01-19T06:08:44.847Z,0.08
2023-01-19T06:11:14.802Z,-0.04
2023-01-19T06:13:47.563Z,-0.17
2023-01-19T06:16:17.208Z,-0.07
2023-01-19T06:18:46.765Z,-0.14
2023-01-19T06:21:18.649Z,-0.19
2023-01-19T06:23:48.226Z,-0.17
2023-01-19T06:26:17.759Z,-0.27
2023-01-19T06:28:50.046Z,-0.33
2023-01-19T06:31:19.617Z,-0.40
2023-01-19T06:33:50.176Z,-0.35
2023-01-19T06:36:19.748Z,-0.42
2023-01-19T06:38:49.265Z,-0.39
2023-01-19T06:41:18.765Z,-0.47
2023-01-19T06:43:50.867Z,-0.46
2023-01-19T06:46:20.391Z,-0.50
2023-01-19T06:48:49.965Z,-0.49
2023-01-19T06:51:19.494Z,-0.48
2023-01-19T06:53:49.080Z,-0.45
2023-01-19T06:56:18.876Z,-0.51
2023-01-19T06:58:53.148Z,-0.35
2023-01-19T07:01:22.723Z,-0.54
2023-01-19T07:03:52.310Z,-0.64
2023-01-19T07:06:21.893Z,-0.51
2023-01-19T07:08:51.415Z,-0.48
2023-01-19T07:11:25.361Z,-0.55
2023-01-19T07:14:04.064Z,-0.35
2023-01-19T07:16:34.067Z,-0.41
2023-01-19T07:19:03.610Z,-0.38
2023-01-19T07:21:33.286Z,-0.33
2023-01-19T07:24:02.817Z,-0.47
2023-01-19T07:26:32.333Z,-0.54
2023-01-19T07:29:04.475Z,-0.40
2023-01-19T07:31:34.217Z,-0.29
2023-01-19T07:34:03.851Z,-0.06
2023-01-19T07:36:33.662Z,-0.08
2023-01-19T07:39:03.224Z,0.16
2023-01-19T07:41:32.974Z,0.07
2023-01-19T07:44:05.105Z,-0.04
2023-01-19T07:46:34.706Z,-0.14
2023-01-19T07:49:04.336Z,-0.12
2023-01-19T07:51:33.958Z,-0.02
2023-01-19T07:54:03.935Z,-0.06
2023-01-19T07:56:33.858Z,-0.04
2023-01-19T07:59:09.667Z,0.36
2023-01-19T08:01:39.657Z,0.41
2023-01-19T08:04:10.603Z,0.65
2023-01-19T08:06:41.925Z,0.65
2023-01-19T08:09:11.730Z,0.90
2023-01-19T08:11:41.849Z,1.02
2023-01-19T08:14:14.320Z,1.02
2023-01-19T08:16:43.815Z,0.95
2023-01-19T08:19:13.405Z,1.43
2023-01-19T08:21:43.318Z,1.72
2023-01-19T08:24:21.534Z,1.62
2023-01-19T08:26:53.273Z,1.49
2023-01-19T08:29:25.358Z,1.45
2023-01-19T08:31:57.545Z,1.64
2023-01-19T08:34:27.395Z,1.90
2023-01-19T08:36:56.943Z,1.37
2023-01-19T08:39:27.417Z,2.34
2023-01-19T08:41:57.028Z,2.58
2023-01-19T08:44:29.415Z,2.67
2023-01-19T08:46:58.995Z,2.12
2023-01-19T08:49:28.539Z,2.06
2023-01-19T08:51:58.077Z,1.78
2023-01-19T08:54:27.767Z,1.64
2023-01-19T08:56:57.350Z,1.46
2023-01-19T08:59:29.448Z,1.58
2023-01-19T09:01:59.088Z,1.72
2023-01-19T09:04:28.795Z,2.01
2023-01-19T09:06:58.357Z,2.07
2023-01-19T09:09:27.958Z,2.00
2023-01-19T09:11:57.855Z,1.69
2023-01-19T09:14:29.999Z,1.82
2023-01-19T09:16:59.508Z,1.96
2023-01-19T09:19:29.099Z,2.26
2023-01-19T09:21:59.545Z,2.34
2023-01-19T09:24:29.372Z,2.17
2023-01-19T09:26:58.882Z,2.28
2023-01-19T09:29:30.983Z,2.63
2023-01-19T09:32:00.547Z,2.28
2023-01-19T09:34:31.293Z,2.33
2023-01-19T09:37:00.956Z,2.07
2023-01-19T09:39:30.540Z,2.19
2023-01-19T09:42:09.284Z,2.23
2023-01-19T09:44:43.639Z,2.25
2023-01-19T09:47:17.752Z,2.10
2023-01-19T09:49:52.782Z,1.98
2023-01-19T09:52:23.136Z,2.03
2023-01-19T09:54:56.949Z,2.57
2023-01-19T09:57:28.231Z,2.40
2023-01-19T10:00:00.732Z,2.71
2023-01-19T10:02:39.585Z,2.62
2023-01-19T10:05:26.761Z,2.02
2023-01-19T10:08:10.439Z,2.10
2023-01-19T10:10:45.103Z,2.00
2023-01-19T10:13:24.295Z,2.37
2023-01-19T10:16:05.254Z,2.05
2023-01-19T10:18:47.636Z,2.59
2023-01-19T10:21:21.903Z,2.63
2023-01-19T10:23:55.287Z,2.97
2023-01-19T10:26:28.223Z,2.74
2023-01-19T10:29:04.192Z,2.84
2023-01-19T10:31:38.641Z,3.08
2023-01-19T10:34:08.475Z,3.15
2023-01-19T10:36:39.821Z,2.72
2023-01-19T10:39:10.928Z,3.46
2023-01-19T10:41:44.769Z,2.80
2023-01-19T10:44:14.703Z,2.94
2023-01-19T10:46:49.616Z,2.73
2023-01-19T10:49:31.419Z,2.87
2023-01-19T10:52:02.600Z,3.23
2023-01-19T10:54:34.105Z,2.80
2023-01-19T10:57:06.321Z,2.57
2023-01-19T10:59:38.671Z,3.11
2023-01-19T11:02:23.769Z,2.82
2023-01-19T11:04:55.444Z,2.38
2023-01-19T11:07:29.836Z,2.25
2023-01-19T11:10:20.901Z,2.28
2023-01-19T11:13:01.337Z,2.40
2023-01-19T11:15:37.531Z,2.29
2023-01-19T11:18:10.453Z,2.40
2023-01-19T11:20:52.219Z,2.36
2023-01-19T11:23:27.482Z,2.46
2023-01-19T11:26:01.316Z,2.57
2023-01-19T11:28:34.300Z,2.66
2023-01-19T11:31:05.681Z,2.71
2023-01-19T11:33:52.738Z,2.53
2023-01-19T11:36:24.130Z,2.42
2023-01-19T11:38:55.118Z,2.69
2023-01-19T11:41:29.601Z,2.86
2023-01-19T11:44:02.790Z,2.80
2023-01-19T11:46:36.477Z,3.10
2023-01-19T11:49:15.434Z,3.33
2023-01-19T11:51:53.715Z,3.01
2023-01-19T11:54:28.104Z,2.64
2023-01-19T11:56:59.386Z,3.47
2023-01-19T11:59:29.054Z,3.15
2023-01-19T12:02:03.153Z,3.92
2023-01-19T12:04:41.287Z,4.06
2023-01-19T12:07:14.524Z,4.10
2023-01-19T12:09:47.431Z,3.85
2023-01-19T12:12:28.764Z,3.28
2023-01-19T12:15:02.425Z,4.18
2023-01-19T12:17:36.384Z,4.44
2023-01-19T12:20:22.190Z,4.64
2023-01-19T12:22:56.777Z,4.72
2023-01-19T12:25:34.933Z,4.37
2023-01-19T12:28:06.547Z,3.59
2023-01-19T12:30:36.250Z,3.48
2023-01-19T12:33:24.285Z,4.08
2023-01-19T12:36:01.120Z,3.91
2023-01-19T12:38:41.631Z,3.51
2023-01-19T12:41:28.604Z,3.65
2023-01-19T12:44:34.414Z,3.34
2023-01-19T12:47:21.167Z,3.38
2023-01-19T12:49:54.601Z,3.28
2023-01-19T12:52:34.505Z,3.65
2023-01-19T12:55:19.840Z,3.63
2023-01-19T12:57:55.544Z,3.38
2023-01-19T13:00:37.618Z,3.64
2023-01-19T13:03:23.540Z,3.74
2023-01-19T13:05:55.368Z,3.62
2023-01-19T13:08:29.998Z,3.83
2023-01-19T13:11:24.323Z,3.78
2023-01-19T13:14:29.884Z,3.76
2023-01-19T13:17:06.423Z,4.11
2023-01-19T13:19:46.392Z,3.87
2023-01-19T13:22:45.935Z,3.84
2023-01-19T13:25:30.322Z,3.73
2023-01-19T13:28:00.495Z,3.86
2023-01-19T13:30:32.319Z,3.99
2023-01-19T13:33:08.909Z,3.89
2023-01-19T13:35:38.702Z,3.96
2023-01-19T13:38:10.257Z,3.80
2023-01-19T13:40:44.369Z,3.82
2023-01-19T13:43:20.204Z,3.65
2023-01-19T13:45:53.559Z,3.79
2023-01-19T13:48:25.284Z,3.76
2023-01-19T13:51:06.760Z,3.68
2023-01-19T13:53:36.952Z,3.74
2023-01-19T13:56:22.076Z,3.64
2023-01-19T13:59:10.388Z,3.57
2023-01-19T14:01:45.146Z,3.48
2023-01-19T14:04:32.562Z,3.25
2023-01-19T14:07:04.708Z,2.93
2023-01-19T14:09:34.523Z,2.90
2023-01-19T14:12:15.084Z,2.61
2023-01-19T14:14:46.822Z,2.95
2023-01-19T14:17:26.096Z,2.99
2023-01-19T14:19:57.014Z,2.86
2023-01-19T14:22:40.647Z,2.85
2023-01-19T14:25:35.279Z,2.88
2023-01-19T14:28:35.996Z,3.03
2023-01-19T14:31:20.789Z,2.72
2023-01-19T14:33:53.202Z,2.45
2023-01-19T14:36:30.914Z,2.19
2023-01-19T14:39:02.940Z,2.38
2023-01-19T14:41:40.463Z,2.38
2023-01-19T14:44:22.552Z,2.46
2023-01-19T14:46:52.543Z,2.47
2023-01-19T14:49:24.350Z,2.20
2023-01-19T14:51:56.044Z,2.57
2023-01-19T14:54:33.620Z,2.46
2023-01-19T14:57:03.183Z,2.55
2023-01-19T14:59:35.436Z,2.33
2023-01-19T15:02:05.069Z,2.58
2023-01-19T15:04:34.913Z,2.38
2023-01-19T15:07:04.526Z,2.44
2023-01-19T15:09:34.122Z,2.61
2023-01-19T15:12:03.700Z,2.80
2023-01-19T15:14:35.797Z,2.30
2023-01-19T15:17:05.404Z,2.19
2023-01-19T15:19:34.947Z,2.85
2023-01-19T15:22:04.515Z,2.88
2023-01-19T15:24:34.068Z,3.31
2023-01-19T15:27:03.674Z,2.98
2023-01-19T15:29:35.824Z,2.36
2023-01-19T15:32:05.596Z,2.48
2023-01-19T15:34:35.104Z,2.82
2023-01-19T15:37:04.633Z,2.99
2023-01-19T15:39:34.735Z,3.26
2023-01-19T15:42:04.345Z,2.29
2023-01-19T15:44:36.426Z,2.16
2023-01-19T15:47:05.920Z,3.08
2023-01-19T15:49:35.453Z,2.94
2023-01-19T15:52:04.998Z,3.31
2023-01-19T15:54:34.493Z,3.68
2023-01-19T15:57:04.105Z,3.52
2023-01-19T15:59:36.244Z,3.40
2023-01-19T16:02:06.852Z,3.28
2023-01-19T16:04:36.462Z,3.22
2023-01-19T16:07:06.002Z,2.79
2023-01-19T16:09:35.557Z,2.59
2023-01-19T16:12:05.060Z,2.61
2023-01-19T16:14:37.386Z,2.66
2023-01-19T16:17:06.943Z,2.49
2023-01-19T16:19:36.464Z,2.67
2023-01-19T16:22:06.064Z,2.54
2023-01-19T16:24:35.615Z,2.50
2023-01-19T16:27:05.181Z,2.47
2023-01-19T16:29:37.491Z,2.54
2023-01-19T16:32:07.601Z,2.63
2023-01-19T16:34:37.132Z,2.76
2023-01-19T16:37:06.629Z,2.63
2023-01-19T16:39:36.224Z,2.67
2023-01-19T16:42:06.310Z,2.81
2023-01-19T16:44:38.417Z,3.03
2023-01-19T16:47:08.082Z,2.92
2023-01-19T16:49:37.765Z,2.95
2023-01-19T16:52:07.733Z,2.69
2023-01-19T16:54:39.342Z,2.70
2023-01-19T16:57:08.961Z,2.92
2023-01-19T16:59:44.164Z,2.78
2023-01-19T17:02:14.031Z,2.64
2023-01-19T17:04:43.597Z,2.68
2023-01-19T17:07:13.106Z,2.69
2023-01-19T17:09:42.734Z,2.78
2023-01-19T17:12:12.657Z,2.69
2023-01-19T17:14:47.329Z,2.29
2023-01-19T17:17:17.421Z,2.38
2023-01-19T17:19:47.459Z,2.27
2023-01-19T17:22:16.985Z,2.17
2023-01-19T17:24:46.533Z,2.11
2023-01-19T17:27:17.220Z,2.02
2023-01-19T17:29:50.029Z,1.93
2023-01-19T17:32:19.673Z,2.02
2023-01-19T17:34:51.613Z,2.00
2023-01-19T17:37:21.181Z,1.88
2023-01-19T17:39:50.707Z,1.98
2023-01-19T17:42:20.238Z,1.97
2023-01-19T17:44:52.447Z,1.96
2023-01-19T17:47:25.913Z,1.87
2023-01-19T17:49:55.556Z,1.91
2023-01-19T17:52:25.163Z,2.00
2023-01-19T17:54:54.692Z,1.89
2023-01-19T17:57:24.260Z,1.82
2023-01-19T17:59:56.387Z,1.99
2023-01-19T18:02:26.292Z,1.74
2023-01-19T18:04:56.373Z,1.71
2023-01-19T18:07:26.072Z,1.88
2023-01-19T18:09:57.611Z,1.74
2023-01-19T18:12:28.141Z,1.70
2023-01-19T18:15:00.346Z,1.79
2023-01-19T18:17:29.882Z,1.73
2023-01-19T18:19:59.404Z,1.72
2023-01-19T18:22:28.935Z,1.73
2023-01-19T18:24:58.664Z,1.94
2023-01-19T18:27:29.207Z,1.62
2023-01-19T18:30:01.324Z,1.59
2023-01-19T18:32:30.857Z,1.50
2023-01-19T18:35:02.537Z,1.39
2023-01-19T18:37:32.089Z,1.36
2023-01-19T18:40:04.365Z,1.40
2023-01-19T18:42:34.034Z,1.47
2023-01-19T18:45:06.916Z,1.27
2023-01-19T18:47:36.501Z,1.41
2023-01-19T18:50:06.272Z,1.51
2023-01-19T18:52:35.904Z,1.60
2023-01-19T18:55:05.570Z,1.62
2023-01-19T18:57:37.023Z,1.66
2023-01-19T19:00:10.939Z,1.77
2023-01-19T19:02:40.717Z,1.77
2023-01-19T19:05:11.097Z,1.98
2023-01-19T19:07:40.681Z,1.85
2023-01-19T19:10:28.316Z,1.93
2023-01-19T19:12:57.824Z,2.05
2023-01-19T19:15:30.058Z,2.06
2023-01-19T19:17:59.619Z,2.11
2023-01-19T19:20:29.339Z,1.81
2023-01-19T19:22:58.920Z,1.93
2023-01-19T19:25:28.504Z,1.66
2023-01-19T19:27:58.178Z,1.71
2023-01-19T19:30:30.511Z,1.65
2023-01-19T19:33:01.125Z,1.52
2023-01-19T19:35:30.675Z,1.60
2023-01-19T19:38:00.533Z,1.66
2023-01-19T19:40:30.948Z,1.70
2023-01-19T19:43:00.479Z,1.63
2023-01-19T19:45:32.768Z,1.99
2023-01-19T19:48:02.329Z,1.55
2023-01-19T19:50:31.992Z,1.67
2023-01-19T19:53:01.861Z,1.33
2023-01-19T19:55:31.482Z,1.57
2023-01-19T19:58:01.007Z,1.65
2023-01-19T20:00:33.233Z,1.28
2023-01-19T20:03:03.133Z,0.91
2023-01-19T20:05:32.705Z,0.75
2023-01-19T20:08:02.296Z,0.77
2023-01-19T20:10:32.086Z,0.79
2023-01-19T20:13:01.657Z,0.79
2023-01-19T20:15:34.226Z,0.73
2023-01-19T20:18:04.408Z,0.68
2023-01-19T20:20:33.993Z,0.74
2023-01-19T20:23:04.237Z,0.72
2023-01-19T20:25:33.841Z,0.79
2023-01-19T20:28:03.399Z,1.04
2023-01-19T20:30:35.567Z,1.29
2023-01-19T20:33:05.337Z,1.23
2023-01-19T20:35:35.054Z,1.11
2023-01-19T20:38:04.761Z,0.95
2023-01-19T20:40:34.313Z,0.70
2023-01-19T20:43:03.893Z,0.69
2023-01-19T20:45:36.326Z,0.83
2023-01-19T20:48:05.901Z,1.15
2023-01-19T20:50:37.735Z,1.37
2023-01-19T20:53:07.285Z,1.02
2023-01-19T20:55:38.402Z,1.24
2023-01-19T20:58:08.360Z,0.65
2023-01-19T21:00:40.939Z,1.08
2023-01-19T21:03:10.628Z,1.14
2023-01-19T21:05:40.229Z,1.12
2023-01-19T21:08:09.792Z,1.21
2023-01-19T21:10:39.330Z,0.92
2023-01-19T21:13:08.915Z,1.13
2023-01-19T21:15:41.059Z,0.93
2023-01-19T21:18:10.572Z,1.28
2023-01-19T21:20:40.134Z,0.90
2023-01-19T21:23:09.975Z,1.04
2023-01-19T21:25:39.880Z,0.81
2023-01-19T21:28:09.417Z,0.67
2023-01-19T21:30:41.552Z,0.58
2023-01-19T21:33:11.119Z,0.43
2023-01-19T21:35:40.776Z,0.50
2023-01-19T21:38:10.299Z,0.47
2023-01-19T21:40:39.848Z,0.50
2023-01-19T21:43:10.516Z,0.35
2023-01-19T21:45:43.188Z,0.13
2023-01-19T21:48:13.619Z,0.13
2023-01-19T21:50:43.614Z,0.16
2023-01-19T21:53:13.683Z,-0.01
2023-01-19T21:55:47.246Z,0.32
2023-01-19T21:58:16.825Z,0.81
2023-01-19T22:00:48.941Z,0.75
2023-01-19T22:03:18.786Z,0.79
2023-01-19T22:05:48.423Z,0.41
2023-01-19T22:08:20.230Z,0.25
2023-01-19T22:10:49.845Z,0.33
2023-01-19T22:13:19.463Z,0.57
2023-01-19T22:15:51.908Z,0.73
2023-01-19T22:18:21.538Z,1.03
2023-01-19T22:20:51.056Z,0.91
2023-01-19T22:23:20.874Z,0.68
2023-01-19T22:25:50.500Z,0.65
2023-01-19T22:28:20.083Z,1.20
2023-01-19T22:30:52.281Z,0.09
2023-01-19T22:33:21.901Z,0.61
2023-01-19T22:35:51.770Z,1.46
2023-01-19T22:38:21.357Z,-0.04
2023-01-19T22:40:50.882Z,-0.94
2023-01-19T22:43:20.394Z,-0.63
2023-01-19T22:45:52.531Z,0.13
2023-01-19T22:48:22.350Z,-0.38
2023-01-19T22:50:57.981Z,-0.43
2023-01-19T22:53:27.398Z,-0.60
2023-01-19T22:55:56.929Z,-0.78
2023-01-19T22:58:26.496Z,-0.36
2023-01-19T23:00:58.691Z,0.20
2023-01-19T23:03:28.240Z,0.11
2023-01-19T23:05:57.873Z,-0.36
2023-01-19T23:08:27.478Z,-0.43
2023-01-19T23:10:57.007Z,-0.58
2023-01-19T23:13:26.593Z,-0.38
2023-01-19T23:15:59.932Z,0.18
2023-01-19T23:18:29.666Z,-0.62
2023-01-19T23:21:04.235Z,-0.60
2023-01-19T23:23:33.910Z,-0.54
2023-01-19T23:26:04.087Z,-0.43
2023-01-19T23:28:34.387Z,-0.14
2023-01-19T23:31:16.306Z,-0.13
2023-01-19T23:33:46.893Z,-0.17
2023-01-19T23:36:17.819Z,-0.28
2023-01-19T23:38:51.437Z,-0.34
2023-01-19T23:41:21.564Z,-0.33
2023-01-19T23:43:51.726Z,-0.40
2023-01-19T23:46:24.924Z,-0.36
2023-01-19T23:48:55.034Z,-0.33
2023-01-19T23:51:26.950Z,-0.31
2023-01-19T23:53:56.853Z,-0.22
2023-01-19T23:56:28.089Z,-0.27
2023-01-19T23:58:59.261Z,-0.23
